sensor_id;sensor_type;location;lat;lon;timestamp;P1;durP1;ratioP1;P2;durP2;ratioP2
63688;SDS011;54895;40.928;14.480;2023-07-30T00:01:10;13.70;;;6.45;;
63688;SDS011;54895;40.928;14.480;2023-07-30T00:03:36;13.93;;;6.63;;
63688;SDS011;54895;40.928;14.480;2023-07-30T00:06:02;15.13;;;7.13;;
63688;SDS011;54895;40.928;14.480;2023-07-30T00:08:28;16.23;;;6.68;;
63688;SDS011;54895;40.928;14.480;2023-07-30T00:10:58;11.32;;;6.03;;
63688;SDS011;54895;40.928;14.480;2023-07-30T00:13:24;20.00;;;6.72;;
63688;SDS011;54895;40.928;14.480;2023-07-30T00:15:51;14.25;;;6.72;;
63688;SDS011;54895;40.928;14.480;2023-07-30T00:18:17;17.98;;;6.80;;
63688;SDS011;54895;40.928;14.480;2023-07-30T00:20:43;16.27;;;6.75;;
63688;SDS011;54895;40.928;14.480;2023-07-30T00:23:10;18.80;;;7.25;;
63688;SDS011;54895;40.928;14.480;2023-07-30T00:29:14;14.48;;;7.03;;
63688;SDS011;54895;40.928;14.480;2023-07-30T00:31:40;12.13;;;6.07;;
63688;SDS011;54895;40.928;14.480;2023-07-30T00:34:07;11.38;;;6.25;;
63688;SDS011;54895;40.928;14.480;2023-07-30T00:36:33;12.93;;;6.15;;
63688;SDS011;54895;40.928;14.480;2023-07-30T00:39:00;15.40;;;6.00;;
63688;SDS011;54895;40.928;14.480;2023-07-30T00:41:26;12.25;;;6.28;;
63688;SDS011;54895;40.928;14.480;2023-07-30T00:43:52;10.77;;;5.72;;
63688;SDS011;54895;40.928;14.480;2023-07-30T00:46:19;13.43;;;6.32;;
63688;SDS011;54895;40.928;14.480;2023-07-30T00:48:45;11.60;;;6.68;;
63688;SDS011;54895;40.928;14.480;2023-07-30T00:51:12;9.90;;;5.57;;
63688;SDS011;54895;40.928;14.480;2023-07-30T00:53:39;10.48;;;5.50;;
63688;SDS011;54895;40.928;14.480;2023-07-30T00:56:06;8.98;;;5.57;;
63688;SDS011;54895;40.928;14.480;2023-07-30T00:58:32;12.50;;;5.45;;
63688;SDS011;54895;40.928;14.480;2023-07-30T01:00:59;11.20;;;5.90;;
63688;SDS011;54895;40.928;14.480;2023-07-30T01:03:26;10.93;;;4.45;;
63688;SDS011;54895;40.928;14.480;2023-07-30T01:05:52;10.90;;;4.80;;
63688;SDS011;54895;40.928;14.480;2023-07-30T01:08:19;9.57;;;4.15;;
63688;SDS011;54895;40.928;14.480;2023-07-30T01:10:46;8.80;;;4.20;;
63688;SDS011;54895;40.928;14.480;2023-07-30T01:13:13;7.22;;;3.63;;
63688;SDS011;54895;40.928;14.480;2023-07-30T01:15:41;10.50;;;4.13;;
63688;SDS011;54895;40.928;14.480;2023-07-30T01:18:08;9.68;;;3.90;;
63688;SDS011;54895;40.928;14.480;2023-07-30T01:20:34;9.68;;;4.80;;
63688;SDS011;54895;40.928;14.480;2023-07-30T01:23:01;8.63;;;4.55;;
63688;SDS011;54895;40.928;14.480;2023-07-30T01:29:11;9.07;;;4.30;;
63688;SDS011;54895;40.928;14.480;2023-07-30T01:31:57;9.50;;;4.38;;
63688;SDS011;54895;40.928;14.480;2023-07-30T01:34:28;6.78;;;4.30;;
63688;SDS011;54895;40.928;14.480;2023-07-30T01:36:58;10.30;;;4.03;;
63688;SDS011;54895;40.928;14.480;2023-07-30T01:39:24;12.73;;;4.30;;
63688;SDS011;54895;40.928;14.480;2023-07-30T01:41:53;7.70;;;3.88;;
63688;SDS011;54895;40.928;14.480;2023-07-30T01:44:20;10.27;;;4.45;;
63688;SDS011;54895;40.928;14.480;2023-07-30T01:46:46;9.00;;;4.40;;
63688;SDS011;54895;40.928;14.480;2023-07-30T01:49:12;7.57;;;4.20;;
63688;SDS011;54895;40.928;14.480;2023-07-30T01:51:39;7.60;;;4.72;;
63688;SDS011;54895;40.928;14.480;2023-07-30T01:54:05;12.48;;;4.50;;
63688;SDS011;54895;40.928;14.480;2023-07-30T01:56:31;9.98;;;4.35;;
63688;SDS011;54895;40.928;14.480;2023-07-30T01:58:57;12.32;;;4.90;;
63688;SDS011;54895;40.928;14.480;2023-07-30T02:01:24;10.77;;;4.80;;
63688;SDS011;54895;40.928;14.480;2023-07-30T02:03:50;8.38;;;4.57;;
63688;SDS011;54895;40.928;14.480;2023-07-30T02:06:16;9.23;;;5.00;;
63688;SDS011;54895;40.928;14.480;2023-07-30T02:08:42;9.20;;;4.32;;
63688;SDS011;54895;40.928;14.480;2023-07-30T02:11:09;7.93;;;4.38;;
63688;SDS011;54895;40.928;14.480;2023-07-30T02:13:35;9.00;;;4.72;;
63688;SDS011;54895;40.928;14.480;2023-07-30T02:16:01;9.15;;;4.05;;
63688;SDS011;54895;40.928;14.480;2023-07-30T02:18:28;8.93;;;4.32;;
63688;SDS011;54895;40.928;14.480;2023-07-30T02:20:54;7.53;;;3.65;;
63688;SDS011;54895;40.928;14.480;2023-07-30T02:23:20;7.65;;;3.80;;
63688;SDS011;54895;40.928;14.480;2023-07-30T02:29:28;7.25;;;3.63;;
63688;SDS011;54895;40.928;14.480;2023-07-30T02:31:57;9.15;;;4.00;;
63688;SDS011;54895;40.928;14.480;2023-07-30T02:34:25;11.05;;;4.10;;
63688;SDS011;54895;40.928;14.480;2023-07-30T02:36:52;9.43;;;3.97;;
63688;SDS011;54895;40.928;14.480;2023-07-30T02:39:18;11.65;;;4.20;;
63688;SDS011;54895;40.928;14.480;2023-07-30T02:41:51;6.60;;;3.72;;
63688;SDS011;54895;40.928;14.480;2023-07-30T02:44:20;8.35;;;3.65;;
63688;SDS011;54895;40.928;14.480;2023-07-30T02:46:46;6.70;;;3.75;;
63688;SDS011;54895;40.928;14.480;2023-07-30T02:49:13;7.57;;;3.70;;
63688;SDS011;54895;40.928;14.480;2023-07-30T02:51:39;7.35;;;3.67;;
63688;SDS011;54895;40.928;14.480;2023-07-30T02:54:07;6.72;;;3.60;;
63688;SDS011;54895;40.928;14.480;2023-07-30T02:56:34;7.85;;;3.70;;
63688;SDS011;54895;40.928;14.480;2023-07-30T02:59:00;10.75;;;3.70;;
63688;SDS011;54895;40.928;14.480;2023-07-30T03:01:27;8.65;;;4.20;;
63688;SDS011;54895;40.928;14.480;2023-07-30T03:03:53;7.25;;;3.40;;
63688;SDS011;54895;40.928;14.480;2023-07-30T03:06:19;6.63;;;3.70;;
63688;SDS011;54895;40.928;14.480;2023-07-30T03:08:46;7.45;;;3.80;;
63688;SDS011;54895;40.928;14.480;2023-07-30T03:11:13;8.43;;;4.03;;
63688;SDS011;54895;40.928;14.480;2023-07-30T03:13:39;6.97;;;4.15;;
63688;SDS011;54895;40.928;14.480;2023-07-30T03:16:05;6.90;;;3.70;;
63688;SDS011;54895;40.928;14.480;2023-07-30T03:18:32;7.75;;;4.15;;
63688;SDS011;54895;40.928;14.480;2023-07-30T03:20:59;7.03;;;3.88;;
63688;SDS011;54895;40.928;14.480;2023-07-30T03:23:26;7.60;;;3.97;;
63688;SDS011;54895;40.928;14.480;2023-07-30T03:29:40;8.77;;;3.80;;
63688;SDS011;54895;40.928;14.480;2023-07-30T03:32:07;6.85;;;3.95;;
63688;SDS011;54895;40.928;14.480;2023-07-30T03:34:33;8.32;;;4.22;;
63688;SDS011;54895;40.928;14.480;2023-07-30T03:36:59;8.15;;;4.00;;
63688;SDS011;54895;40.928;14.480;2023-07-30T03:39:28;8.73;;;3.65;;
63688;SDS011;54895;40.928;14.480;2023-07-30T03:41:55;9.57;;;3.60;;
63688;SDS011;54895;40.928;14.480;2023-07-30T03:44:21;6.95;;;3.55;;
63688;SDS011;54895;40.928;14.480;2023-07-30T03:46:48;8.30;;;3.95;;
63688;SDS011;54895;40.928;14.480;2023-07-30T03:49:14;6.90;;;3.80;;
63688;SDS011;54895;40.928;14.480;2023-07-30T03:51:40;10.48;;;3.75;;
63688;SDS011;54895;40.928;14.480;2023-07-30T03:54:07;12.20;;;4.00;;
63688;SDS011;54895;40.928;14.480;2023-07-30T03:56:33;8.48;;;4.20;;
63688;SDS011;54895;40.928;14.480;2023-07-30T03:58:59;7.82;;;4.00;;
63688;SDS011;54895;40.928;14.480;2023-07-30T04:01:25;9.63;;;4.00;;
63688;SDS011;54895;40.928;14.480;2023-07-30T04:03:52;4.88;;;3.47;;
63688;SDS011;54895;40.928;14.480;2023-07-30T04:06:18;6.18;;;3.33;;
63688;SDS011;54895;40.928;14.480;2023-07-30T04:08:44;10.63;;;3.92;;
63688;SDS011;54895;40.928;14.480;2023-07-30T04:11:10;11.55;;;4.15;;
63688;SDS011;54895;40.928;14.480;2023-07-30T04:13:37;6.00;;;3.47;;
63688;SDS011;54895;40.928;14.480;2023-07-30T04:16:06;6.22;;;3.65;;
63688;SDS011;54895;40.928;14.480;2023-07-30T04:18:33;7.88;;;4.20;;
63688;SDS011;54895;40.928;14.480;2023-07-30T04:20:59;8.13;;;3.83;;
63688;SDS011;54895;40.928;14.480;2023-07-30T04:23:26;8.32;;;4.13;;
63688;SDS011;54895;40.928;14.480;2023-07-30T04:29:43;5.20;;;3.70;;
63688;SDS011;54895;40.928;14.480;2023-07-30T04:32:09;5.47;;;3.75;;
63688;SDS011;54895;40.928;14.480;2023-07-30T04:34:36;6.15;;;3.63;;
63688;SDS011;54895;40.928;14.480;2023-07-30T04:37:03;5.40;;;3.25;;
63688;SDS011;54895;40.928;14.480;2023-07-30T04:39:30;6.68;;;3.80;;
63688;SDS011;54895;40.928;14.480;2023-07-30T04:41:58;7.95;;;3.47;;
63688;SDS011;54895;40.928;14.480;2023-07-30T04:44:26;7.85;;;3.58;;
63688;SDS011;54895;40.928;14.480;2023-07-30T04:46:54;6.70;;;3.72;;
63688;SDS011;54895;40.928;14.480;2023-07-30T04:49:20;7.55;;;3.58;;
63688;SDS011;54895;40.928;14.480;2023-07-30T04:51:47;6.60;;;3.22;;
63688;SDS011;54895;40.928;14.480;2023-07-30T04:54:15;6.45;;;3.80;;
63688;SDS011;54895;40.928;14.480;2023-07-30T04:56:42;6.05;;;3.50;;
63688;SDS011;54895;40.928;14.480;2023-07-30T04:59:08;6.07;;;3.20;;
63688;SDS011;54895;40.928;14.480;2023-07-30T05:01:34;8.52;;;3.70;;
63688;SDS011;54895;40.928;14.480;2023-07-30T05:04:00;4.95;;;3.03;;
63688;SDS011;54895;40.928;14.480;2023-07-30T05:06:26;6.97;;;2.95;;
63688;SDS011;54895;40.928;14.480;2023-07-30T05:08:53;5.75;;;2.70;;
63688;SDS011;54895;40.928;14.480;2023-07-30T05:11:20;7.00;;;3.13;;
63688;SDS011;54895;40.928;14.480;2023-07-30T05:13:46;7.63;;;3.15;;
63688;SDS011;54895;40.928;14.480;2023-07-30T05:16:12;9.07;;;2.78;;
63688;SDS011;54895;40.928;14.480;2023-07-30T05:18:39;4.60;;;2.50;;
63688;SDS011;54895;40.928;14.480;2023-07-30T05:21:05;5.30;;;2.92;;
63688;SDS011;54895;40.928;14.480;2023-07-30T05:23:31;4.63;;;2.72;;
63688;SDS011;54895;40.928;14.480;2023-07-30T05:29:50;5.35;;;3.28;;
63688;SDS011;54895;40.928;14.480;2023-07-30T05:32:16;6.10;;;3.50;;
63688;SDS011;54895;40.928;14.480;2023-07-30T05:34:43;5.88;;;3.78;;
63688;SDS011;54895;40.928;14.480;2023-07-30T05:37:09;12.50;;;5.00;;
63688;SDS011;54895;40.928;14.480;2023-07-30T05:39:35;14.68;;;4.53;;
63688;SDS011;54895;40.928;14.480;2023-07-30T05:42:01;9.88;;;4.70;;
63688;SDS011;54895;40.928;14.480;2023-07-30T05:44:28;13.82;;;5.03;;
63688;SDS011;54895;40.928;14.480;2023-07-30T05:46:54;16.42;;;5.90;;
63688;SDS011;54895;40.928;14.480;2023-07-30T05:49:20;13.23;;;6.15;;
63688;SDS011;54895;40.928;14.480;2023-07-30T05:51:46;10.40;;;5.53;;
63688;SDS011;54895;40.928;14.480;2023-07-30T05:54:13;13.60;;;5.68;;
63688;SDS011;54895;40.928;14.480;2023-07-30T05:56:39;16.50;;;6.13;;
63688;SDS011;54895;40.928;14.480;2023-07-30T05:59:05;16.20;;;5.68;;
63688;SDS011;54895;40.928;14.480;2023-07-30T06:01:32;14.05;;;5.72;;
63688;SDS011;54895;40.928;14.480;2023-07-30T06:03:58;15.18;;;6.30;;
63688;SDS011;54895;40.928;14.480;2023-07-30T06:06:24;14.70;;;6.22;;
63688;SDS011;54895;40.928;14.480;2023-07-30T06:08:53;13.23;;;6.68;;
63688;SDS011;54895;40.928;14.480;2023-07-30T06:11:20;14.75;;;6.68;;
63688;SDS011;54895;40.928;14.480;2023-07-30T06:13:47;23.35;;;7.47;;
63688;SDS011;54895;40.928;14.480;2023-07-30T06:16:14;14.15;;;6.65;;
63688;SDS011;54895;40.928;14.480;2023-07-30T06:18:40;18.27;;;8.05;;
63688;SDS011;54895;40.928;14.480;2023-07-30T06:21:07;14.40;;;7.38;;
63688;SDS011;54895;40.928;14.480;2023-07-30T06:23:33;16.98;;;7.20;;
63688;SDS011;54895;40.928;14.480;2023-07-30T06:29:57;10.30;;;4.68;;
63688;SDS011;54895;40.928;14.480;2023-07-30T06:32:23;8.48;;;3.53;;
63688;SDS011;54895;40.928;14.480;2023-07-30T06:34:50;10.68;;;4.50;;
63688;SDS011;54895;40.928;14.480;2023-07-30T06:37:19;9.85;;;5.15;;
63688;SDS011;54895;40.928;14.480;2023-07-30T06:39:46;10.88;;;4.93;;
63688;SDS011;54895;40.928;14.480;2023-07-30T06:42:12;12.23;;;5.28;;
63688;SDS011;54895;40.928;14.480;2023-07-30T06:44:39;8.68;;;4.75;;
63688;SDS011;54895;40.928;14.480;2023-07-30T06:47:06;8.68;;;3.60;;
63688;SDS011;54895;40.928;14.480;2023-07-30T06:49:32;8.27;;;3.03;;
63688;SDS011;54895;40.928;14.480;2023-07-30T06:52:00;7.32;;;3.22;;
63688;SDS011;54895;40.928;14.480;2023-07-30T06:54:28;6.32;;;3.33;;
63688;SDS011;54895;40.928;14.480;2023-07-30T06:56:55;11.20;;;4.13;;
63688;SDS011;54895;40.928;14.480;2023-07-30T06:59:22;9.05;;;3.47;;
63688;SDS011;54895;40.928;14.480;2023-07-30T07:01:48;8.93;;;3.40;;
63688;SDS011;54895;40.928;14.480;2023-07-30T07:04:15;6.20;;;3.33;;
63688;SDS011;54895;40.928;14.480;2023-07-30T07:06:41;8.70;;;3.33;;
63688;SDS011;54895;40.928;14.480;2023-07-30T07:09:08;6.20;;;3.33;;
63688;SDS011;54895;40.928;14.480;2023-07-30T07:11:34;5.13;;;3.00;;
63688;SDS011;54895;40.928;14.480;2023-07-30T07:14:00;7.80;;;2.90;;
63688;SDS011;54895;40.928;14.480;2023-07-30T07:16:27;7.10;;;3.20;;
63688;SDS011;54895;40.928;14.480;2023-07-30T07:18:53;5.07;;;2.72;;
63688;SDS011;54895;40.928;14.480;2023-07-30T07:21:19;8.30;;;3.08;;
63688;SDS011;54895;40.928;14.480;2023-07-30T07:23:46;5.65;;;3.30;;
63688;SDS011;54895;40.928;14.480;2023-07-30T07:29:53;9.57;;;3.20;;
63688;SDS011;54895;40.928;14.480;2023-07-30T07:32:19;5.45;;;2.75;;
63688;SDS011;54895;40.928;14.480;2023-07-30T07:34:46;6.80;;;2.97;;
63688;SDS011;54895;40.928;14.480;2023-07-30T07:37:13;5.97;;;2.70;;
63688;SDS011;54895;40.928;14.480;2023-07-30T07:39:41;5.13;;;2.50;;
63688;SDS011;54895;40.928;14.480;2023-07-30T07:42:08;5.15;;;2.70;;
63688;SDS011;54895;40.928;14.480;2023-07-30T07:44:34;7.18;;;2.90;;
63688;SDS011;54895;40.928;14.480;2023-07-30T07:47:00;7.25;;;2.88;;
63688;SDS011;54895;40.928;14.480;2023-07-30T07:49:26;5.95;;;2.67;;
63688;SDS011;54895;40.928;14.480;2023-07-30T07:51:52;6.40;;;2.70;;
63688;SDS011;54895;40.928;14.480;2023-07-30T07:54:19;5.18;;;2.25;;
63688;SDS011;54895;40.928;14.480;2023-07-30T07:56:45;8.10;;;2.47;;
63688;SDS011;54895;40.928;14.480;2023-07-30T07:59:11;4.95;;;2.70;;
63688;SDS011;54895;40.928;14.480;2023-07-30T08:01:37;6.65;;;2.67;;
63688;SDS011;54895;40.928;14.480;2023-07-30T08:04:04;7.10;;;3.03;;
63688;SDS011;54895;40.928;14.480;2023-07-30T08:06:31;5.85;;;2.63;;
63688;SDS011;54895;40.928;14.480;2023-07-30T08:08:58;7.68;;;3.00;;
63688;SDS011;54895;40.928;14.480;2023-07-30T08:11:24;11.15;;;2.80;;
63688;SDS011;54895;40.928;14.480;2023-07-30T08:13:50;5.97;;;2.92;;
63688;SDS011;54895;40.928;14.480;2023-07-30T08:16:16;9.02;;;2.80;;
63688;SDS011;54895;40.928;14.480;2023-07-30T08:18:43;9.00;;;3.00;;
63688;SDS011;54895;40.928;14.480;2023-07-30T08:21:09;7.30;;;3.13;;
63688;SDS011;54895;40.928;14.480;2023-07-30T08:23:35;6.72;;;2.50;;
63688;SDS011;54895;40.928;14.480;2023-07-30T08:30:11;6.80;;;2.40;;
63688;SDS011;54895;40.928;14.480;2023-07-30T08:32:38;7.50;;;3.00;;
63688;SDS011;54895;40.928;14.480;2023-07-30T08:35:07;7.80;;;3.67;;
63688;SDS011;54895;40.928;14.480;2023-07-30T08:37:33;5.70;;;2.90;;
63688;SDS011;54895;40.928;14.480;2023-07-30T08:40:00;8.48;;;3.15;;
63688;SDS011;54895;40.928;14.480;2023-07-30T08:42:26;8.13;;;3.70;;
63688;SDS011;54895;40.928;14.480;2023-07-30T08:44:53;8.38;;;3.25;;
63688;SDS011;54895;40.928;14.480;2023-07-30T08:47:19;8.65;;;3.20;;
63688;SDS011;54895;40.928;14.480;2023-07-30T08:49:46;7.70;;;3.05;;
63688;SDS011;54895;40.928;14.480;2023-07-30T08:52:12;9.45;;;3.72;;
63688;SDS011;54895;40.928;14.480;2023-07-30T08:54:39;7.55;;;3.17;;
63688;SDS011;54895;40.928;14.480;2023-07-30T08:57:07;12.18;;;3.30;;
63688;SDS011;54895;40.928;14.480;2023-07-30T08:59:37;6.13;;;3.22;;
63688;SDS011;54895;40.928;14.480;2023-07-30T09:02:18;8.38;;;3.00;;
63688;SDS011;54895;40.928;14.480;2023-07-30T09:04:56;5.93;;;3.00;;
63688;SDS011;54895;40.928;14.480;2023-07-30T09:07:26;7.57;;;3.60;;
63688;SDS011;54895;40.928;14.480;2023-07-30T09:09:52;8.80;;;3.70;;
63688;SDS011;54895;40.928;14.480;2023-07-30T09:12:18;12.23;;;3.90;;
63688;SDS011;54895;40.928;14.480;2023-07-30T09:14:46;7.63;;;3.95;;
63688;SDS011;54895;40.928;14.480;2023-07-30T09:17:17;6.53;;;3.53;;
63688;SDS011;54895;40.928;14.480;2023-07-30T09:19:44;8.80;;;3.70;;
63688;SDS011;54895;40.928;14.480;2023-07-30T09:22:13;8.60;;;3.45;;
63688;SDS011;54895;40.928;14.480;2023-07-30T09:24:45;9.98;;;3.67;;
63688;SDS011;54895;40.928;14.480;2023-07-30T09:30:27;6.22;;;3.47;;
63688;SDS011;54895;40.928;14.480;2023-07-30T09:32:55;11.38;;;3.95;;
63688;SDS011;54895;40.928;14.480;2023-07-30T09:35:22;6.85;;;3.47;;
63688;SDS011;54895;40.928;14.480;2023-07-30T09:37:57;6.88;;;3.40;;
63688;SDS011;54895;40.928;14.480;2023-07-30T09:40:35;6.57;;;3.30;;
63688;SDS011;54895;40.928;14.480;2023-07-30T09:43:03;10.05;;;3.50;;
63688;SDS011;54895;40.928;14.480;2023-07-30T09:45:33;6.90;;;3.40;;
63688;SDS011;54895;40.928;14.480;2023-07-30T09:48:02;9.05;;;3.97;;
63688;SDS011;54895;40.928;14.480;2023-07-30T09:50:30;8.93;;;3.28;;
63688;SDS011;54895;40.928;14.480;2023-07-30T09:52:59;5.43;;;3.20;;
63688;SDS011;54895;40.928;14.480;2023-07-30T09:55:27;8.07;;;3.30;;
63688;SDS011;54895;40.928;14.480;2023-07-30T09:57:54;7.90;;;3.15;;
63688;SDS011;54895;40.928;14.480;2023-07-30T10:00:20;6.43;;;2.90;;
63688;SDS011;54895;40.928;14.480;2023-07-30T10:02:47;5.68;;;2.33;;
63688;SDS011;54895;40.928;14.480;2023-07-30T10:05:16;4.32;;;2.33;;
63688;SDS011;54895;40.928;14.480;2023-07-30T10:07:47;5.95;;;2.22;;
63688;SDS011;54895;40.928;14.480;2023-07-30T10:10:18;6.43;;;2.50;;
63688;SDS011;54895;40.928;14.480;2023-07-30T10:12:46;8.88;;;2.70;;
63688;SDS011;54895;40.928;14.480;2023-07-30T10:15:14;7.95;;;2.53;;
63688;SDS011;54895;40.928;14.480;2023-07-30T10:17:45;5.15;;;2.30;;
63688;SDS011;54895;40.928;14.480;2023-07-30T10:20:19;5.75;;;2.70;;
63688;SDS011;54895;40.928;14.480;2023-07-30T10:22:50;5.13;;;2.50;;
63688;SDS011;54895;40.928;14.480;2023-07-30T10:25:18;4.57;;;2.75;;
63688;SDS011;54895;40.928;14.480;2023-07-30T10:27:48;6.32;;;2.55;;
63688;SDS011;54895;40.928;14.480;2023-07-30T10:30:17;5.72;;;2.50;;
63688;SDS011;54895;40.928;14.480;2023-07-30T10:33:04;5.50;;;3.05;;
63688;SDS011;54895;40.928;14.480;2023-07-30T10:35:41;5.18;;;2.40;;
63688;SDS011;54895;40.928;14.480;2023-07-30T10:38:12;5.35;;;2.70;;
63688;SDS011;54895;40.928;14.480;2023-07-30T10:41:02;4.90;;;2.60;;
63688;SDS011;54895;40.928;14.480;2023-07-30T10:43:40;4.70;;;2.55;;
63688;SDS011;54895;40.928;14.480;2023-07-30T10:46:08;6.10;;;2.50;;
63688;SDS011;54895;40.928;14.480;2023-07-30T10:48:36;5.75;;;2.58;;
63688;SDS011;54895;40.928;14.480;2023-07-30T10:51:10;5.72;;;2.67;;
63688;SDS011;54895;40.928;14.480;2023-07-30T10:53:38;4.82;;;3.00;;
63688;SDS011;54895;40.928;14.480;2023-07-30T10:56:06;5.85;;;2.47;;
63688;SDS011;54895;40.928;14.480;2023-07-30T10:58:33;5.88;;;2.90;;
63688;SDS011;54895;40.928;14.480;2023-07-30T11:01:07;5.50;;;2.53;;
63688;SDS011;54895;40.928;14.480;2023-07-30T11:03:35;5.82;;;2.58;;
63688;SDS011;54895;40.928;14.480;2023-07-30T11:06:02;6.70;;;3.10;;
63688;SDS011;54895;40.928;14.480;2023-07-30T11:08:35;6.57;;;3.15;;
63688;SDS011;54895;40.928;14.480;2023-07-30T11:11:04;6.57;;;2.92;;
63688;SDS011;54895;40.928;14.480;2023-07-30T11:13:38;7.45;;;2.97;;
63688;SDS011;54895;40.928;14.480;2023-07-30T11:16:07;8.45;;;2.90;;
63688;SDS011;54895;40.928;14.480;2023-07-30T11:18:37;5.15;;;2.72;;
63688;SDS011;54895;40.928;14.480;2023-07-30T11:21:04;6.53;;;2.90;;
63688;SDS011;54895;40.928;14.480;2023-07-30T11:23:30;5.28;;;2.95;;
63688;SDS011;54895;40.928;14.480;2023-07-30T11:25:57;6.53;;;3.20;;
63688;SDS011;54895;40.928;14.480;2023-07-30T11:28:30;4.80;;;3.10;;
63688;SDS011;54895;40.928;14.480;2023-07-30T11:30:58;6.72;;;2.60;;
63688;SDS011;54895;40.928;14.480;2023-07-30T11:33:27;8.85;;;2.97;;
63688;SDS011;54895;40.928;14.480;2023-07-30T11:35:57;5.30;;;2.45;;
63688;SDS011;54895;40.928;14.480;2023-07-30T11:38:26;5.40;;;2.42;;
63688;SDS011;54895;40.928;14.480;2023-07-30T11:40:53;7.43;;;2.63;;
63688;SDS011;54895;40.928;14.480;2023-07-30T11:43:21;5.70;;;2.67;;
63688;SDS011;54895;40.928;14.480;2023-07-30T11:45:48;5.20;;;2.47;;
63688;SDS011;54895;40.928;14.480;2023-07-30T11:48:15;6.10;;;2.72;;
63688;SDS011;54895;40.928;14.480;2023-07-30T11:50:48;3.95;;;2.20;;
63688;SDS011;54895;40.928;14.480;2023-07-30T11:53:17;7.43;;;2.30;;
63688;SDS011;54895;40.928;14.480;2023-07-30T11:55:44;7.32;;;2.50;;
63688;SDS011;54895;40.928;14.480;2023-07-30T11:58:11;4.72;;;1.92;;
63688;SDS011;54895;40.928;14.480;2023-07-30T12:00:39;5.00;;;2.40;;
63688;SDS011;54895;40.928;14.480;2023-07-30T12:03:08;3.88;;;2.20;;
63688;SDS011;54895;40.928;14.480;2023-07-30T12:05:37;5.40;;;2.47;;
63688;SDS011;54895;40.928;14.480;2023-07-30T12:08:05;5.25;;;2.50;;
63688;SDS011;54895;40.928;14.480;2023-07-30T12:10:48;6.95;;;3.00;;
63688;SDS011;54895;40.928;14.480;2023-07-30T12:13:17;4.70;;;2.35;;
63688;SDS011;54895;40.928;14.480;2023-07-30T12:15:50;4.60;;;2.00;;
63688;SDS011;54895;40.928;14.480;2023-07-30T12:18:20;5.57;;;2.50;;
63688;SDS011;54895;40.928;14.480;2023-07-30T12:20:47;4.63;;;2.38;;
63688;SDS011;54895;40.928;14.480;2023-07-30T12:23:16;6.50;;;2.17;;
63688;SDS011;54895;40.928;14.480;2023-07-30T12:25:43;6.20;;;2.40;;
63688;SDS011;54895;40.928;14.480;2023-07-30T12:31:15;5.28;;;2.00;;
63688;SDS011;54895;40.928;14.480;2023-07-30T12:33:43;9.20;;;2.90;;
63688;SDS011;54895;40.928;14.480;2023-07-30T12:36:09;5.25;;;2.60;;
63688;SDS011;54895;40.928;14.480;2023-07-30T12:38:35;4.68;;;2.20;;
63688;SDS011;54895;40.928;14.480;2023-07-30T12:41:01;6.63;;;2.60;;
63688;SDS011;54895;40.928;14.480;2023-07-30T12:43:28;4.45;;;1.92;;
63688;SDS011;54895;40.928;14.480;2023-07-30T12:45:54;3.58;;;2.03;;
63688;SDS011;54895;40.928;14.480;2023-07-30T12:48:20;2.97;;;1.67;;
63688;SDS011;54895;40.928;14.480;2023-07-30T12:50:47;4.32;;;1.70;;
63688;SDS011;54895;40.928;14.480;2023-07-30T12:53:13;4.60;;;1.80;;
63688;SDS011;54895;40.928;14.480;2023-07-30T12:55:40;4.20;;;1.85;;
63688;SDS011;54895;40.928;14.480;2023-07-30T12:58:06;6.32;;;1.80;;
63688;SDS011;54895;40.928;14.480;2023-07-30T13:00:33;4.07;;;1.88;;
63688;SDS011;54895;40.928;14.480;2023-07-30T13:03:00;2.67;;;1.77;;
63688;SDS011;54895;40.928;14.480;2023-07-30T13:05:28;4.28;;;1.88;;
63688;SDS011;54895;40.928;14.480;2023-07-30T13:07:54;5.38;;;1.70;;
63688;SDS011;54895;40.928;14.480;2023-07-30T13:10:20;4.13;;;1.85;;
63688;SDS011;54895;40.928;14.480;2023-07-30T13:12:46;3.20;;;2.00;;
63688;SDS011;54895;40.928;14.480;2023-07-30T13:15:12;5.82;;;1.92;;
63688;SDS011;54895;40.928;14.480;2023-07-30T13:17:39;3.88;;;1.65;;
63688;SDS011;54895;40.928;14.480;2023-07-30T13:20:05;2.53;;;1.58;;
63688;SDS011;54895;40.928;14.480;2023-07-30T13:22:32;2.67;;;1.58;;
63688;SDS011;54895;40.928;14.480;2023-07-30T13:24:58;3.22;;;1.60;;
63688;SDS011;54895;40.928;14.480;2023-07-30T13:30:45;4.95;;;1.85;;
63688;SDS011;54895;40.928;14.480;2023-07-30T13:33:12;3.28;;;1.50;;
63688;SDS011;54895;40.928;14.480;2023-07-30T13:35:38;5.65;;;1.77;;
63688;SDS011;54895;40.928;14.480;2023-07-30T13:38:04;4.00;;;1.80;;
63688;SDS011;54895;40.928;14.480;2023-07-30T13:40:30;4.00;;;1.88;;
63688;SDS011;54895;40.928;14.480;2023-07-30T13:42:56;4.43;;;1.50;;
63688;SDS011;54895;40.928;14.480;2023-07-30T13:45:23;4.10;;;1.70;;
63688;SDS011;54895;40.928;14.480;2023-07-30T13:47:49;3.83;;;1.55;;
63688;SDS011;54895;40.928;14.480;2023-07-30T13:50:22;3.25;;;1.70;;
63688;SDS011;54895;40.928;14.480;2023-07-30T13:52:48;3.97;;;1.63;;
63688;SDS011;54895;40.928;14.480;2023-07-30T13:55:15;4.90;;;1.90;;
63688;SDS011;54895;40.928;14.480;2023-07-30T13:57:42;2.95;;;1.50;;
63688;SDS011;54895;40.928;14.480;2023-07-30T14:00:09;3.45;;;1.48;;
63688;SDS011;54895;40.928;14.480;2023-07-30T14:02:36;4.22;;;1.80;;
63688;SDS011;54895;40.928;14.480;2023-07-30T14:05:02;3.08;;;1.40;;
63688;SDS011;54895;40.928;14.480;2023-07-30T14:07:32;2.97;;;1.42;;
63688;SDS011;54895;40.928;14.480;2023-07-30T14:09:58;6.22;;;1.58;;
63688;SDS011;54895;40.928;14.480;2023-07-30T14:12:25;3.03;;;1.70;;
63688;SDS011;54895;40.928;14.480;2023-07-30T14:14:51;3.25;;;1.42;;
63688;SDS011;54895;40.928;14.480;2023-07-30T14:17:17;4.45;;;1.45;;
63688;SDS011;54895;40.928;14.480;2023-07-30T14:19:44;3.20;;;1.58;;
63688;SDS011;54895;40.928;14.480;2023-07-30T14:22:10;2.47;;;1.40;;
63688;SDS011;54895;40.928;14.480;2023-07-30T14:24:36;3.97;;;1.63;;
63688;SDS011;54895;40.928;14.480;2023-07-30T14:30:48;3.72;;;1.42;;
63688;SDS011;54895;40.928;14.480;2023-07-30T14:33:14;3.53;;;1.40;;
63688;SDS011;54895;40.928;14.480;2023-07-30T14:35:40;3.13;;;1.67;;
63688;SDS011;54895;40.928;14.480;2023-07-30T14:38:06;2.28;;;1.30;;
63688;SDS011;54895;40.928;14.480;2023-07-30T14:40:33;2.38;;;1.25;;
63688;SDS011;54895;40.928;14.480;2023-07-30T14:42:59;3.50;;;1.65;;
63688;SDS011;54895;40.928;14.480;2023-07-30T14:45:25;2.70;;;1.20;;
63688;SDS011;54895;40.928;14.480;2023-07-30T14:47:51;4.13;;;1.65;;
63688;SDS011;54895;40.928;14.480;2023-07-30T14:50:18;2.95;;;1.17;;
63688;SDS011;54895;40.928;14.480;2023-07-30T14:52:44;2.67;;;1.30;;
63688;SDS011;54895;40.928;14.480;2023-07-30T14:55:11;3.60;;;1.40;;
63688;SDS011;54895;40.928;14.480;2023-07-30T14:57:37;4.60;;;1.23;;
63688;SDS011;54895;40.928;14.480;2023-07-30T15:00:03;3.38;;;1.20;;
63688;SDS011;54895;40.928;14.480;2023-07-30T15:02:30;2.22;;;1.20;;
63688;SDS011;54895;40.928;14.480;2023-07-30T15:04:57;3.88;;;1.38;;
63688;SDS011;54895;40.928;14.480;2023-07-30T15:07:23;2.90;;;1.20;;
63688;SDS011;54895;40.928;14.480;2023-07-30T15:09:51;3.28;;;1.30;;
63688;SDS011;54895;40.928;14.480;2023-07-30T15:12:18;4.30;;;1.48;;
63688;SDS011;54895;40.928;14.480;2023-07-30T15:14:45;5.43;;;1.40;;
63688;SDS011;54895;40.928;14.480;2023-07-30T15:17:11;3.05;;;1.30;;
63688;SDS011;54895;40.928;14.480;2023-07-30T15:19:38;2.38;;;1.00;;